createdAt,value
2018-01-11T00:00:39.298Z,2.57
2018-01-11T00:03:05.560Z,3.53
2018-01-11T00:05:31.902Z,2.83
2018-01-11T00:07:58.152Z,2.50
2018-01-11T00:10:24.425Z,2.70
2018-01-11T00:12:50.688Z,2.60
2018-01-11T00:15:16.936Z,2.43
2018-01-11T00:17:43.222Z,2.50
2018-01-11T00:20:09.479Z,2.60
2018-01-11T00:22:35.748Z,2.73
2018-01-11T00:25:02.081Z,2.70
2018-01-11T00:27:28.345Z,2.30
2018-01-11T00:29:55.352Z,2.90
2018-01-11T00:32:21.633Z,2.50
2018-01-11T00:34:48.623Z,2.70
2018-01-11T00:37:14.878Z,3.07
2018-01-11T00:39:41.128Z,2.57
2018-01-11T00:42:07.420Z,2.50
2018-01-11T00:44:33.665Z,2.37
2018-01-11T00:46:59.917Z,2.67
2018-01-11T00:49:26.182Z,3.10
2018-01-11T00:51:53.193Z,3.10
2018-01-11T00:54:19.455Z,3.17
2018-01-11T00:56:45.722Z,2.50
2018-01-11T00:59:11.978Z,2.43
2018-01-11T01:01:38.228Z,2.83
2018-01-11T01:04:04.493Z,2.40
2018-01-11T01:06:30.864Z,2.63
2018-01-11T01:08:57.109Z,2.67
2018-01-11T01:11:23.427Z,2.40
2018-01-11T01:13:49.681Z,3.17
2018-01-11T01:16:15.939Z,2.50
2018-01-11T01:18:42.249Z,2.80
2018-01-11T01:21:08.496Z,3.23
2018-01-11T01:23:34.744Z,2.77
2018-01-11T01:26:01.023Z,2.53
2018-01-11T01:28:28.057Z,2.33
2018-01-11T01:30:54.336Z,2.73
2018-01-11T01:33:20.580Z,2.77
2018-01-11T01:35:46.829Z,2.40
2018-01-11T01:38:13.118Z,2.57
2018-01-11T01:40:40.124Z,2.53
2018-01-11T01:43:06.450Z,2.53
2018-01-11T01:45:33.170Z,2.97
2018-01-11T01:47:59.420Z,3.00
2018-01-11T01:50:25.678Z,2.47
2018-01-11T01:52:51.965Z,2.53
2018-01-11T01:55:18.254Z,2.50
2018-01-11T01:57:44.509Z,3.30
2018-01-11T02:00:10.913Z,3.07
2018-01-11T02:02:37.160Z,2.80
2018-01-11T02:05:03.408Z,3.10
2018-01-11T02:07:29.712Z,3.17
2018-01-11T02:09:55.957Z,2.80
2018-01-11T02:12:22.200Z,2.80
2018-01-11T02:14:48.456Z,2.83
2018-01-11T02:17:14.707Z,5.10
2018-01-11T02:19:41.732Z,2.73
2018-01-11T02:22:07.990Z,2.90
2018-01-11T02:24:34.975Z,2.77
2018-01-11T02:27:01.656Z,2.17
2018-01-11T02:29:27.909Z,2.60
2018-01-11T02:31:54.194Z,2.70
2018-01-11T02:34:20.467Z,2.73
2018-01-11T02:36:46.712Z,2.63
2018-01-11T02:39:12.960Z,3.43
2018-01-11T02:41:39.964Z,2.63
2018-01-11T02:44:06.219Z,2.63
2018-01-11T02:46:32.461Z,2.70
2018-01-11T02:48:58.712Z,2.90
2018-01-11T02:51:25.708Z,2.63
2018-01-11T02:53:51.995Z,2.30
2018-01-11T02:56:18.274Z,2.50
2018-01-11T02:58:44.520Z,2.77
2018-01-11T03:01:10.769Z,3.30
2018-01-11T03:03:37.043Z,2.67
2018-01-11T03:06:04.054Z,3.20
2018-01-11T03:08:30.307Z,2.50
2018-01-11T03:10:56.567Z,2.33
2018-01-11T03:13:22.820Z,2.60
2018-01-11T03:15:49.080Z,2.20
2018-01-11T03:18:15.351Z,2.40
2018-01-11T03:20:42.367Z,3.47
2018-01-11T03:23:08.615Z,2.40
2018-01-11T03:25:34.863Z,2.70
2018-01-11T03:28:01.859Z,2.40
2018-01-11T03:30:28.129Z,2.67
2018-01-11T03:32:54.392Z,2.73
2018-01-11T03:35:20.648Z,2.60
2018-01-11T03:37:46.912Z,2.47
2018-01-11T03:40:13.146Z,2.70
2018-01-11T03:42:39.416Z,2.17
2018-01-11T03:45:05.691Z,2.90
2018-01-11T03:47:31.940Z,2.83
2018-01-11T03:49:58.204Z,2.60
2018-01-11T03:52:24.526Z,3.80
2018-01-11T03:54:50.797Z,2.40
2018-01-11T03:57:17.060Z,2.40
2018-01-11T03:59:43.306Z,2.80
2018-01-11T04:02:09.567Z,2.70
2018-01-11T04:04:35.818Z,2.70
2018-01-11T04:07:02.076Z,2.70
2018-01-11T04:09:28.343Z,2.80
2018-01-11T04:11:54.588Z,3.00
2018-01-11T04:14:20.836Z,2.93
2018-01-11T04:16:47.083Z,2.97
2018-01-11T04:19:13.340Z,2.33
2018-01-11T04:21:39.604Z,2.40
2018-01-11T04:24:05.844Z,2.63
2018-01-11T04:26:32.095Z,2.80
2018-01-11T04:28:58.348Z,3.43
2018-01-11T04:31:24.621Z,2.40
2018-01-11T04:33:50.899Z,3.00
2018-01-11T04:36:17.143Z,3.47
2018-01-11T04:38:43.400Z,2.83
2018-01-11T04:41:09.640Z,2.20
2018-01-11T04:43:35.912Z,2.27
2018-01-11T04:46:02.901Z,2.50
2018-01-11T04:48:29.156Z,2.47
2018-01-11T04:50:55.400Z,2.73
2018-01-11T04:53:21.667Z,2.53
2018-01-11T04:55:47.922Z,2.20
2018-01-11T04:58:14.200Z,2.20
2018-01-11T05:00:46.640Z,2.57
2018-01-11T05:03:12.950Z,2.83
2018-01-11T05:05:39.211Z,2.70
2018-01-11T05:08:05.464Z,2.80
2018-01-11T05:10:31.735Z,3.27
2018-01-11T05:12:58.011Z,2.67
2018-01-11T05:15:24.267Z,3.70
2018-01-11T05:17:50.514Z,2.73
2018-01-11T05:20:16.796Z,2.63
2018-01-11T05:22:43.064Z,2.50
2018-01-11T05:25:09.322Z,2.90
2018-01-11T05:27:35.651Z,2.60
2018-01-11T05:30:01.893Z,2.50
2018-01-11T05:32:28.200Z,2.30
2018-01-11T05:34:55.180Z,2.30
2018-01-11T05:37:21.425Z,2.53
2018-01-11T05:39:47.679Z,1.93
2018-01-11T05:42:14.655Z,2.13
2018-01-11T05:44:40.904Z,2.10
2018-01-11T05:47:07.182Z,1.93
2018-01-11T05:49:33.445Z,2.40
2018-01-11T05:51:59.692Z,2.00
2018-01-11T05:54:25.952Z,2.27
2018-01-11T05:56:52.215Z,2.70
2018-01-11T05:59:18.475Z,2.20
2018-01-11T06:01:45.532Z,2.30
2018-01-11T06:04:12.532Z,1.97
2018-01-11T06:06:38.801Z,2.57
2018-01-11T06:09:05.109Z,1.97
2018-01-11T06:11:31.383Z,2.70
2018-01-11T06:13:58.392Z,2.40
2018-01-11T06:16:24.669Z,2.40
2018-01-11T06:18:51.685Z,2.00
2018-01-11T06:21:17.939Z,2.30
2018-01-11T06:23:44.217Z,2.40
2018-01-11T06:26:10.499Z,2.40
2018-01-11T06:28:36.763Z,2.70
2018-01-11T06:31:04.566Z,2.60
2018-01-11T06:33:30.849Z,2.63
2018-01-11T06:35:57.113Z,2.63
2018-01-11T06:38:23.368Z,2.57
2018-01-11T06:40:49.619Z,2.60
2018-01-11T06:43:15.864Z,2.57
2018-01-11T06:45:42.108Z,2.50
2018-01-11T06:48:08.404Z,2.40
2018-01-11T06:50:34.663Z,2.80
2018-01-11T06:53:00.934Z,2.50
2018-01-11T06:55:27.948Z,2.50
2018-01-11T06:57:54.246Z,2.63
2018-01-11T07:00:20.529Z,2.13
2018-01-11T07:02:46.838Z,2.33
2018-01-11T07:05:13.094Z,4.00
2018-01-11T07:07:39.487Z,8.47
2018-01-11T07:10:05.761Z,12.00
2018-01-11T07:12:32.052Z,11.30
2018-01-11T07:14:58.343Z,7.37
2018-01-11T07:17:24.629Z,5.70
2018-01-11T07:19:50.876Z,7.07
2018-01-11T07:22:17.127Z,5.03
2018-01-11T07:24:43.441Z,5.67
2018-01-11T07:27:09.717Z,5.43
2018-01-11T07:29:35.999Z,11.60
2018-01-11T07:32:02.284Z,7.33
2018-01-11T07:34:28.541Z,7.37
2018-01-11T07:36:54.839Z,7.93
2018-01-11T07:39:21.093Z,5.90
2018-01-11T07:41:47.355Z,6.47
2018-01-11T07:44:14.357Z,5.30
2018-01-11T07:46:40.618Z,5.80
2018-01-11T07:49:06.897Z,5.40
2018-01-11T07:51:33.183Z,6.40
2018-01-11T07:53:59.432Z,15.00
2018-01-11T07:56:25.712Z,10.07
2018-01-11T07:58:52.007Z,9.60
2018-01-11T08:01:19.083Z,9.20
2018-01-11T08:03:45.351Z,7.40
2018-01-11T08:06:11.616Z,11.00
2018-01-11T08:08:37.899Z,11.93
2018-01-11T08:11:04.299Z,9.83
2018-01-11T08:13:30.594Z,9.97
2018-01-11T08:15:56.893Z,9.13
2018-01-11T08:18:23.941Z,11.07
2018-01-11T08:20:50.948Z,10.67
2018-01-11T08:23:17.277Z,18.77
2018-01-11T08:25:43.565Z,15.27
2018-01-11T08:28:10.602Z,11.07
2018-01-11T08:30:36.890Z,10.87
2018-01-11T08:33:03.161Z,9.63
2018-01-11T08:35:29.437Z,16.90
2018-01-11T08:37:55.744Z,11.53
2018-01-11T08:40:22.744Z,9.20
2018-01-11T08:42:49.039Z,13.13
2018-01-11T08:45:16.035Z,9.73
2018-01-11T08:47:42.302Z,9.07
2018-01-11T08:50:08.614Z,8.30
2018-01-11T08:52:34.893Z,10.83
2018-01-11T08:55:01.893Z,8.10
2018-01-11T08:57:28.644Z,11.67
2018-01-11T08:59:54.946Z,7.60
2018-01-11T09:02:21.247Z,9.10
2018-01-11T09:04:47.510Z,9.77
2018-01-11T09:07:14.520Z,9.43
2018-01-11T09:09:40.778Z,8.43
2018-01-11T09:12:07.091Z,9.40
2018-01-11T09:14:33.364Z,10.70
2018-01-11T09:17:00.374Z,7.63
2018-01-11T09:19:26.651Z,11.03
2018-01-11T09:21:53.664Z,7.20
2018-01-11T09:24:19.920Z,7.60
2018-01-11T09:26:46.245Z,6.60
2018-01-11T09:29:12.517Z,8.63
2018-01-11T09:31:38.772Z,7.67
2018-01-11T09:34:05.024Z,6.27
2018-01-11T09:36:31.283Z,5.90
2018-01-11T09:38:57.548Z,5.90
2018-01-11T09:41:24.560Z,5.27
2018-01-11T09:43:50.819Z,6.20
2018-01-11T09:46:17.063Z,5.67
2018-01-11T09:48:44.048Z,6.93
2018-01-11T09:51:10.308Z,7.10
2018-01-11T09:53:36.577Z,5.10
2018-01-11T09:56:03.580Z,5.63
2018-01-11T09:58:29.924Z,7.10
2018-01-11T10:00:56.172Z,5.27
2018-01-11T10:03:22.431Z,6.20
2018-01-11T10:05:48.717Z,5.20
2018-01-11T10:08:14.986Z,5.30
2018-01-11T10:10:41.247Z,5.20
2018-01-11T10:13:08.266Z,4.80
2018-01-11T10:15:34.547Z,4.80
2018-01-11T10:18:00.805Z,7.30
2018-01-11T10:20:27.111Z,8.20
2018-01-11T10:22:54.113Z,8.70
2018-01-11T10:25:20.395Z,5.60
2018-01-11T10:27:47.420Z,5.40
2018-01-11T10:30:13.691Z,6.20
2018-01-11T10:32:40.146Z,6.00
2018-01-11T10:35:06.420Z,5.50
2018-01-11T10:37:32.675Z,4.83
2018-01-11T10:39:58.966Z,5.73
2018-01-11T10:42:25.228Z,5.30
2018-01-11T10:44:51.526Z,5.40
2018-01-11T10:47:17.821Z,5.87
2018-01-11T10:49:44.857Z,7.23
2018-01-11T10:52:11.131Z,5.23
2018-01-11T10:54:37.387Z,5.50
2018-01-11T10:57:03.645Z,5.97
2018-01-11T10:59:29.926Z,6.10
2018-01-11T11:02:02.329Z,5.80
2018-01-11T11:04:28.618Z,5.23
2018-01-11T11:06:54.872Z,5.80
2018-01-11T11:09:21.189Z,6.30
2018-01-11T11:11:48.179Z,4.70
2018-01-11T11:14:14.432Z,7.50
2018-01-11T11:16:40.714Z,5.80
2018-01-11T11:19:07.745Z,5.13
2018-01-11T11:21:34.030Z,5.50
2018-01-11T11:24:00.285Z,4.83
2018-01-11T11:26:26.565Z,4.63
2018-01-11T11:28:52.833Z,4.50
2018-01-11T11:31:19.072Z,4.70
2018-01-11T11:33:45.339Z,6.27
2018-01-11T11:36:11.617Z,5.03
2018-01-11T11:38:38.671Z,5.27
2018-01-11T11:41:05.716Z,7.17
2018-01-11T11:43:32.715Z,6.73
2018-01-11T11:45:58.991Z,4.30
2018-01-11T11:48:25.248Z,5.60
2018-01-11T11:50:52.244Z,8.20
2018-01-11T11:53:18.512Z,5.70
2018-01-11T11:55:45.463Z,6.10
2018-01-11T11:58:11.732Z,7.17
2018-01-11T12:00:37.982Z,6.07
2018-01-11T12:03:04.254Z,7.90
2018-01-11T12:05:30.553Z,13.50
2018-01-11T12:07:56.824Z,10.43
2018-01-11T12:10:23.097Z,12.03
2018-01-11T12:12:49.361Z,13.90
2018-01-11T12:15:15.640Z,11.60
2018-01-11T12:17:41.919Z,15.23
2018-01-11T12:20:08.173Z,12.00
2018-01-11T12:22:34.472Z,13.43
2018-01-11T12:25:00.725Z,12.27
2018-01-11T12:27:26.987Z,12.67
2018-01-11T12:29:53.267Z,12.30
2018-01-11T12:32:20.286Z,11.60
2018-01-11T12:34:46.575Z,12.53
2018-01-11T12:37:12.854Z,10.27
2018-01-11T12:39:39.140Z,9.23
2018-01-11T12:42:05.416Z,9.17
2018-01-11T12:44:31.700Z,10.50
2018-01-11T12:46:58.743Z,10.03
2018-01-11T12:49:25.913Z,8.33
2018-01-11T12:51:52.206Z,11.60
2018-01-11T12:54:18.525Z,19.03
2018-01-11T12:56:44.790Z,14.03
2018-01-11T12:59:11.054Z,17.10
2018-01-11T13:01:37.315Z,13.13
2018-01-11T13:04:03.661Z,13.50
2018-01-11T13:06:29.944Z,16.90
2018-01-11T13:08:56.957Z,12.63
2018-01-11T13:11:23.211Z,14.97
2018-01-11T13:13:49.459Z,13.90
2018-01-11T13:16:15.714Z,10.97
2018-01-11T13:18:41.991Z,16.80
2018-01-11T13:21:08.243Z,8.73
2018-01-11T13:23:34.549Z,11.47
2018-01-11T13:26:00.801Z,12.80
2018-01-11T13:28:27.069Z,10.00
2018-01-11T13:30:54.092Z,8.23
2018-01-11T13:33:20.368Z,11.27
2018-01-11T13:35:47.382Z,12.70
2018-01-11T13:38:13.631Z,9.50
2018-01-11T13:40:40.639Z,10.25
2018-01-11T13:43:06.908Z,11.70
2018-01-11T13:45:33.161Z,6.87
2018-01-11T13:47:59.439Z,7.87
2018-01-11T13:50:25.707Z,7.33
2018-01-11T13:52:52.004Z,8.83
2018-01-11T13:55:18.273Z,9.83
2018-01-11T13:57:44.543Z,9.60
2018-01-11T14:00:11.581Z,8.70
2018-01-11T14:02:37.889Z,8.57
2018-01-11T14:05:04.190Z,8.63
2018-01-11T14:07:30.477Z,8.67
2018-01-11T14:09:56.724Z,7.00
2018-01-11T14:12:22.979Z,7.00
2018-01-11T14:14:49.975Z,9.13
2018-01-11T14:17:16.270Z,7.40
2018-01-11T14:19:42.558Z,8.53
2018-01-11T14:22:09.556Z,8.93
2018-01-11T14:24:35.817Z,7.70
2018-01-11T14:27:02.101Z,9.20
2018-01-11T14:29:28.351Z,7.63
2018-01-11T14:31:55.399Z,7.33
2018-01-11T14:34:22.397Z,10.73
2018-01-11T14:36:48.650Z,11.43
2018-01-11T14:39:14.913Z,9.17
2018-01-11T14:41:41.185Z,9.70
2018-01-11T14:44:07.452Z,10.67
2018-01-11T14:46:33.718Z,9.50
2018-01-11T14:49:00.767Z,10.70
2018-01-11T14:51:27.063Z,11.43
2018-01-11T14:53:53.400Z,9.10
2018-01-11T14:56:19.753Z,13.07
2018-01-11T14:58:46.037Z,13.07
2018-01-11T15:01:12.316Z,14.57
2018-01-11T15:03:38.600Z,14.37
2018-01-11T15:06:05.601Z,14.50
2018-01-11T15:08:31.897Z,15.13
2018-01-11T15:10:58.162Z,16.43
2018-01-11T15:13:24.450Z,15.53
2018-01-11T15:15:51.473Z,14.50
2018-01-11T15:18:17.761Z,15.27
2018-01-11T15:20:44.069Z,17.63
2018-01-11T15:23:11.060Z,16.43
2018-01-11T15:25:37.391Z,13.80
2018-01-11T15:28:03.661Z,12.63
2018-01-11T15:30:29.967Z,12.87
2018-01-11T15:32:56.237Z,14.13
2018-01-11T15:35:22.537Z,15.40
2018-01-11T15:37:48.864Z,14.40
2018-01-11T15:40:15.164Z,11.30
2018-01-11T15:42:42.201Z,11.90
2018-01-11T15:45:08.511Z,16.07
2018-01-11T15:47:34.772Z,12.63
2018-01-11T15:50:01.524Z,13.83
2018-01-11T15:52:27.797Z,12.40
2018-01-11T15:54:54.064Z,11.17
2018-01-11T15:57:20.340Z,13.87
2018-01-11T15:59:47.351Z,15.50
2018-01-11T16:02:13.636Z,14.10
2018-01-11T16:04:40.638Z,13.53
2018-01-11T16:07:06.904Z,11.80
2018-01-11T16:09:33.174Z,12.33
2018-01-11T16:11:59.433Z,13.83
2018-01-11T16:14:25.702Z,13.30
2018-01-11T16:16:51.980Z,14.90
2018-01-11T16:19:18.233Z,19.27
2018-01-11T16:21:44.507Z,16.70
2018-01-11T16:24:10.791Z,14.77
2018-01-11T16:26:37.097Z,17.53
2018-01-11T16:29:04.132Z,18.13
2018-01-11T16:31:30.414Z,16.23
2018-01-11T16:33:56.704Z,13.57
2018-01-11T16:36:22.997Z,11.73
2018-01-11T16:38:49.281Z,13.03
2018-01-11T16:41:15.581Z,13.90
2018-01-11T16:43:41.841Z,12.53
2018-01-11T16:46:08.115Z,13.40
2018-01-11T16:48:34.408Z,12.20
2018-01-11T16:51:00.676Z,12.93
2018-01-11T16:53:27.736Z,12.73
2018-01-11T16:55:54.017Z,15.17
2018-01-11T16:58:20.270Z,16.87
2018-01-11T17:00:46.541Z,31.73
2018-01-11T17:03:12.828Z,26.20
2018-01-11T17:05:39.095Z,26.67
2018-01-11T17:08:06.199Z,21.53
2018-01-11T17:10:32.488Z,19.40
2018-01-11T17:12:59.509Z,19.37
2018-01-11T17:15:25.800Z,21.13
2018-01-11T17:17:52.087Z,19.37
2018-01-11T17:20:18.537Z,18.03
2018-01-11T17:22:44.812Z,13.60
2018-01-11T17:25:11.127Z,16.60
2018-01-11T17:27:38.142Z,16.50
2018-01-11T17:30:04.432Z,16.00
2018-01-11T17:32:30.696Z,14.07
2018-01-11T17:34:56.944Z,13.40
2018-01-11T17:37:23.229Z,16.37
2018-01-11T17:39:49.488Z,14.67
2018-01-11T17:42:15.756Z,12.30
2018-01-11T17:44:42.088Z,15.20
2018-01-11T17:47:08.397Z,11.07
2018-01-11T17:49:34.692Z,12.37
2018-01-11T17:52:01.749Z,14.80
2018-01-11T17:54:28.806Z,14.10
2018-01-11T18:00:05.474Z,10.93
2018-01-11T18:02:32.556Z,9.73
2018-01-11T18:05:00.159Z,11.20
2018-01-11T18:07:26.458Z,11.47
2018-01-11T18:09:53.425Z,11.63
2018-01-11T18:12:20.015Z,11.20
2018-01-11T18:14:46.252Z,10.20
2018-01-11T18:17:12.533Z,9.83
2018-01-11T18:19:38.896Z,9.87
2018-01-11T18:22:05.312Z,8.97
2018-01-11T18:24:31.917Z,10.30
2018-01-11T18:42:35.844Z,9.60
2018-01-11T18:45:02.179Z,10.17
2018-01-11T18:47:28.531Z,10.10
2018-01-11T19:07:35.910Z,12.73
2018-01-11T19:10:02.227Z,11.90
2018-01-11T19:12:28.572Z,16.47
2018-01-11T19:32:43.286Z,11.00
2018-01-11T20:18:11.432Z,11.10
2018-01-11T20:20:37.739Z,9.47
2018-01-11T20:23:04.041Z,13.30
2018-01-11T20:25:30.369Z,14.10
2018-01-11T20:27:56.656Z,11.60
2018-01-11T20:30:22.987Z,10.70
2018-01-11T20:32:49.277Z,10.17
2018-01-11T20:35:15.568Z,11.40
2018-01-11T20:37:41.855Z,11.53
2018-01-11T20:40:08.191Z,13.17
2018-01-11T20:42:35.278Z,12.30
2018-01-11T20:45:01.568Z,9.87
2018-01-11T20:47:27.872Z,9.53
2018-01-11T20:49:54.161Z,12.70
2018-01-11T20:52:21.192Z,9.47
2018-01-11T20:54:47.598Z,8.30
2018-01-11T20:57:13.947Z,7.40
2018-01-11T20:59:40.256Z,9.97
2018-01-11T21:02:06.626Z,7.67
2018-01-11T21:04:32.954Z,7.47
2018-01-11T21:06:59.259Z,7.40
2018-01-11T21:09:25.548Z,8.47
2018-01-11T21:11:51.849Z,8.07
2018-01-11T21:14:18.165Z,8.57
2018-01-11T21:16:44.476Z,6.17
2018-01-11T21:19:11.522Z,8.77
2018-01-11T21:21:37.903Z,10.27
2018-01-11T21:24:04.226Z,11.23
2018-01-11T21:26:30.540Z,11.90
2018-01-11T21:28:56.910Z,12.80
2018-01-11T21:31:23.260Z,11.43
2018-01-11T21:36:40.557Z,9.33
2018-01-11T21:39:07.599Z,8.73
2018-01-11T21:41:34.643Z,9.90
2018-01-11T21:44:01.014Z,9.53
2018-01-11T21:46:27.330Z,9.00
2018-01-11T21:48:54.399Z,10.73
2018-01-11T21:51:20.715Z,9.13
2018-01-11T21:53:47.764Z,8.90
2018-01-11T21:56:14.809Z,9.00
2018-01-11T21:58:41.112Z,9.50
2018-01-11T22:01:07.406Z,10.37
2018-01-11T22:03:33.726Z,8.70
2018-01-11T22:06:00.769Z,11.13
2018-01-11T22:08:27.058Z,8.50
2018-01-11T22:10:53.368Z,8.50
2018-01-11T22:13:19.660Z,7.93
2018-01-11T22:15:45.959Z,9.90
2018-01-11T22:18:26.731Z,10.10
2018-01-11T22:20:53.078Z,9.90
2018-01-11T22:23:19.394Z,7.63
2018-01-11T22:33:24.226Z,10.30
2018-01-11T22:35:50.520Z,7.60
2018-01-11T22:38:16.860Z,10.20
2018-01-11T22:40:43.150Z,8.40
2018-01-11T22:43:18.519Z,9.20
2018-01-11T22:45:44.805Z,11.33
2018-01-11T22:48:13.305Z,9.30
2018-01-11T22:50:40.328Z,9.27
2018-01-11T22:53:06.651Z,9.80
2018-01-11T22:58:29.968Z,9.20
2018-01-11T23:00:56.261Z,9.80
2018-01-11T23:03:22.571Z,10.37
2018-01-11T23:05:48.881Z,10.63
2018-01-11T23:08:15.941Z,8.33
2018-01-11T23:10:42.956Z,12.20
2018-01-11T23:33:30.233Z,9.60
2018-01-11T23:38:53.692Z,10.00
2018-01-11T23:41:19.988Z,10.97
2018-01-11T23:43:46.269Z,12.47
2018-01-11T23:52:06.530Z,9.33
2018-01-11T23:54:32.823Z,9.00
2018-01-11T23:56:59.156Z,9.93
2018-01-11T23:59:25.452Z,8.83
